sensor_id;sensor_type;location;lat;lon;timestamp;P1;durP1;ratioP1;P2;durP2;ratioP2
68976;SDS011;56029;52.568;13.588;2022-09-09T00:01:37;15.88;;;9.57;;
68976;SDS011;56029;52.568;13.588;2022-09-09T00:04:30;17.05;;;9.63;;
68976;SDS011;56029;52.568;13.588;2022-09-09T00:07:20;19.55;;;10.30;;
68976;SDS011;56029;52.568;13.588;2022-09-09T00:09:57;16.67;;;9.47;;
68976;SDS011;56029;52.568;13.588;2022-09-09T00:12:37;17.02;;;9.75;;
68976;SDS011;56029;52.568;13.588;2022-09-09T00:15:16;18.20;;;10.02;;
68976;SDS011;56029;52.568;13.588;2022-09-09T00:17:47;17.17;;;9.70;;
68976;SDS011;56029;52.568;13.588;2022-09-09T00:29:04;15.35;;;8.95;;
68976;SDS011;56029;52.568;13.588;2022-09-09T00:31:39;16.23;;;8.82;;
68976;SDS011;56029;52.568;13.588;2022-09-09T00:34:12;17.73;;;9.43;;
68976;SDS011;56029;52.568;13.588;2022-09-09T00:36:50;17.20;;;9.82;;
68976;SDS011;56029;52.568;13.588;2022-09-09T00:39:37;21.05;;;10.68;;
68976;SDS011;56029;52.568;13.588;2022-09-09T00:44:59;22.00;;;11.48;;
68976;SDS011;56029;52.568;13.588;2022-09-09T00:47:52;21.83;;;11.53;;
68976;SDS011;56029;52.568;13.588;2022-09-09T00:55:41;24.77;;;12.40;;
68976;SDS011;56029;52.568;13.588;2022-09-09T00:58:18;23.00;;;12.57;;
68976;SDS011;56029;52.568;13.588;2022-09-09T01:00:44;23.97;;;11.83;;
68976;SDS011;56029;52.568;13.588;2022-09-09T01:11:58;21.50;;;11.40;;
68976;SDS011;56029;52.568;13.588;2022-09-09T01:20:06;19.70;;;10.55;;
68976;SDS011;56029;52.568;13.588;2022-09-09T01:25:12;19.27;;;9.88;;
68976;SDS011;56029;52.568;13.588;2022-09-09T01:27:46;18.45;;;10.25;;
68976;SDS011;56029;52.568;13.588;2022-09-09T01:30:14;19.67;;;9.75;;
68976;SDS011;56029;52.568;13.588;2022-09-09T01:35:26;16.93;;;9.70;;
68976;SDS011;56029;52.568;13.588;2022-09-09T01:38:12;18.02;;;9.40;;
68976;SDS011;56029;52.568;13.588;2022-09-09T01:40:39;16.55;;;9.32;;
68976;SDS011;56029;52.568;13.588;2022-09-09T01:43:04;15.87;;;9.13;;
68976;SDS011;56029;52.568;13.588;2022-09-09T01:45:31;17.15;;;9.05;;
68976;SDS011;56029;52.568;13.588;2022-09-09T01:47:58;16.05;;;9.10;;
68976;SDS011;56029;52.568;13.588;2022-09-09T01:50:25;15.60;;;8.65;;
68976;SDS011;56029;52.568;13.588;2022-09-09T01:52:56;17.98;;;9.32;;
68976;SDS011;56029;52.568;13.588;2022-09-09T01:55:28;14.53;;;8.73;;
68976;SDS011;56029;52.568;13.588;2022-09-09T01:58:03;16.88;;;8.90;;
68976;SDS011;56029;52.568;13.588;2022-09-09T02:00:53;15.85;;;8.88;;
68976;SDS011;56029;52.568;13.588;2022-09-09T02:03:44;15.80;;;8.50;;
68976;SDS011;56029;52.568;13.588;2022-09-09T02:06:27;16.00;;;9.20;;
68976;SDS011;56029;52.568;13.588;2022-09-09T02:08:59;14.90;;;8.60;;
68976;SDS011;56029;52.568;13.588;2022-09-09T02:11:28;13.95;;;8.25;;
68976;SDS011;56029;52.568;13.588;2022-09-09T02:13:56;16.58;;;9.23;;
68976;SDS011;56029;52.568;13.588;2022-09-09T02:19:06;15.27;;;8.40;;
68976;SDS011;56029;52.568;13.588;2022-09-09T02:21:37;15.60;;;8.77;;
68976;SDS011;56029;52.568;13.588;2022-09-09T02:24:07;15.70;;;8.63;;
68976;SDS011;56029;52.568;13.588;2022-09-09T02:26:37;15.40;;;8.68;;
68976;SDS011;56029;52.568;13.588;2022-09-09T02:29:07;17.02;;;8.68;;
68976;SDS011;56029;52.568;13.588;2022-09-09T02:31:39;15.52;;;8.50;;
68976;SDS011;56029;52.568;13.588;2022-09-09T02:34:06;16.43;;;8.50;;
68976;SDS011;56029;52.568;13.588;2022-09-09T02:36:36;15.48;;;8.50;;
68976;SDS011;56029;52.568;13.588;2022-09-09T02:39:05;14.95;;;8.10;;
68976;SDS011;56029;52.568;13.588;2022-09-09T02:41:35;13.85;;;7.53;;
68976;SDS011;56029;52.568;13.588;2022-09-09T02:44:05;14.13;;;8.13;;
68976;SDS011;56029;52.568;13.588;2022-09-09T02:49:40;14.73;;;7.80;;
68976;SDS011;56029;52.568;13.588;2022-09-09T02:52:37;15.02;;;8.00;;
68976;SDS011;56029;52.568;13.588;2022-09-09T02:55:21;14.32;;;7.40;;
68976;SDS011;56029;52.568;13.588;2022-09-09T02:57:55;13.73;;;7.47;;
68976;SDS011;56029;52.568;13.588;2022-09-09T03:00:22;15.60;;;8.33;;
68976;SDS011;56029;52.568;13.588;2022-09-09T03:02:52;14.98;;;8.23;;
68976;SDS011;56029;52.568;13.588;2022-09-09T03:05:20;15.20;;;8.23;;
68976;SDS011;56029;52.568;13.588;2022-09-09T03:07:46;13.82;;;7.80;;
68976;SDS011;56029;52.568;13.588;2022-09-09T03:10:12;14.60;;;7.80;;
68976;SDS011;56029;52.568;13.588;2022-09-09T03:12:38;15.30;;;7.83;;
68976;SDS011;56029;52.568;13.588;2022-09-09T03:15:05;13.45;;;7.82;;
68976;SDS011;56029;52.568;13.588;2022-09-09T03:17:31;13.82;;;7.63;;
68976;SDS011;56029;52.568;13.588;2022-09-09T03:19:57;14.80;;;7.43;;
68976;SDS011;56029;52.568;13.588;2022-09-09T03:22:24;15.60;;;8.07;;
68976;SDS011;56029;52.568;13.588;2022-09-09T03:24:50;13.23;;;7.80;;
68976;SDS011;56029;52.568;13.588;2022-09-09T03:27:17;13.52;;;7.25;;
68976;SDS011;56029;52.568;13.588;2022-09-09T03:29:44;13.27;;;7.50;;
68976;SDS011;56029;52.568;13.588;2022-09-09T03:32:10;14.23;;;7.78;;
68976;SDS011;56029;52.568;13.588;2022-09-09T03:34:37;13.35;;;7.57;;
68976;SDS011;56029;52.568;13.588;2022-09-09T03:37:05;13.20;;;7.57;;
68976;SDS011;56029;52.568;13.588;2022-09-09T03:39:31;13.45;;;7.35;;
68976;SDS011;56029;52.568;13.588;2022-09-09T03:41:57;14.17;;;7.33;;
68976;SDS011;56029;52.568;13.588;2022-09-09T03:44:22;13.57;;;7.67;;
68976;SDS011;56029;52.568;13.588;2022-09-09T03:46:48;14.02;;;7.72;;
68976;SDS011;56029;52.568;13.588;2022-09-09T03:49:13;13.60;;;8.17;;
68976;SDS011;56029;52.568;13.588;2022-09-09T03:51:39;13.02;;;7.60;;
68976;SDS011;56029;52.568;13.588;2022-09-09T03:54:05;13.73;;;7.70;;
68976;SDS011;56029;52.568;13.588;2022-09-09T03:56:34;14.57;;;7.65;;
68976;SDS011;56029;52.568;13.588;2022-09-09T03:59:00;14.20;;;7.68;;
68976;SDS011;56029;52.568;13.588;2022-09-09T04:01:26;13.73;;;7.90;;
68976;SDS011;56029;52.568;13.588;2022-09-09T04:03:52;13.15;;;7.53;;
68976;SDS011;56029;52.568;13.588;2022-09-09T04:06:18;13.82;;;7.45;;
68976;SDS011;56029;52.568;13.588;2022-09-09T04:08:45;13.13;;;7.27;;
68976;SDS011;56029;52.568;13.588;2022-09-09T04:11:14;13.40;;;7.43;;
68976;SDS011;56029;52.568;13.588;2022-09-09T04:13:40;13.60;;;7.82;;
68976;SDS011;56029;52.568;13.588;2022-09-09T04:16:07;13.35;;;7.40;;
68976;SDS011;56029;52.568;13.588;2022-09-09T04:18:34;14.07;;;7.60;;
68976;SDS011;56029;52.568;13.588;2022-09-09T04:21:00;13.17;;;7.67;;
68976;SDS011;56029;52.568;13.588;2022-09-09T04:23:26;14.25;;;7.53;;
68976;SDS011;56029;52.568;13.588;2022-09-09T04:25:55;14.53;;;7.73;;
68976;SDS011;56029;52.568;13.588;2022-09-09T04:28:23;12.18;;;7.07;;
68976;SDS011;56029;52.568;13.588;2022-09-09T04:30:50;12.82;;;7.55;;
68976;SDS011;56029;52.568;13.588;2022-09-09T04:33:18;13.73;;;7.63;;
68976;SDS011;56029;52.568;13.588;2022-09-09T04:35:45;14.18;;;8.00;;
68976;SDS011;56029;52.568;13.588;2022-09-09T04:38:12;12.63;;;7.37;;
68976;SDS011;56029;52.568;13.588;2022-09-09T04:40:39;13.63;;;7.55;;
68976;SDS011;56029;52.568;13.588;2022-09-09T04:43:08;13.20;;;7.32;;
68976;SDS011;56029;52.568;13.588;2022-09-09T04:45:33;13.85;;;7.63;;
68976;SDS011;56029;52.568;13.588;2022-09-09T04:47:59;14.67;;;8.73;;
68976;SDS011;56029;52.568;13.588;2022-09-09T04:50:25;13.02;;;7.93;;
68976;SDS011;56029;52.568;13.588;2022-09-09T04:52:50;12.07;;;7.33;;
68976;SDS011;56029;52.568;13.588;2022-09-09T04:55:16;13.88;;;8.10;;
68976;SDS011;56029;52.568;13.588;2022-09-09T04:57:42;13.93;;;7.77;;
68976;SDS011;56029;52.568;13.588;2022-09-09T05:00:08;14.32;;;8.18;;
68976;SDS011;56029;52.568;13.588;2022-09-09T05:02:38;13.53;;;7.93;;
68976;SDS011;56029;52.568;13.588;2022-09-09T05:05:04;13.80;;;8.50;;
68976;SDS011;56029;52.568;13.588;2022-09-09T05:07:31;13.90;;;8.30;;
68976;SDS011;56029;52.568;13.588;2022-09-09T05:09:56;13.43;;;7.78;;
68976;SDS011;56029;52.568;13.588;2022-09-09T05:12:22;14.17;;;8.10;;
68976;SDS011;56029;52.568;13.588;2022-09-09T05:14:49;14.57;;;8.07;;
68976;SDS011;56029;52.568;13.588;2022-09-09T05:17:15;13.43;;;7.82;;
68976;SDS011;56029;52.568;13.588;2022-09-09T05:19:41;14.40;;;8.20;;
68976;SDS011;56029;52.568;13.588;2022-09-09T05:22:06;13.40;;;7.82;;
68976;SDS011;56029;52.568;13.588;2022-09-09T05:24:32;15.03;;;8.43;;
68976;SDS011;56029;52.568;13.588;2022-09-09T05:26:58;13.35;;;8.65;;
68976;SDS011;56029;52.568;13.588;2022-09-09T05:29:25;16.95;;;8.90;;
68976;SDS011;56029;52.568;13.588;2022-09-09T05:31:51;16.47;;;9.23;;
68976;SDS011;56029;52.568;13.588;2022-09-09T05:34:17;15.40;;;9.30;;
68976;SDS011;56029;52.568;13.588;2022-09-09T05:36:42;16.03;;;8.70;;
68976;SDS011;56029;52.568;13.588;2022-09-09T05:39:08;15.10;;;9.30;;
68976;SDS011;56029;52.568;13.588;2022-09-09T05:41:33;15.52;;;9.10;;
68976;SDS011;56029;52.568;13.588;2022-09-09T05:44:00;15.63;;;9.37;;
68976;SDS011;56029;52.568;13.588;2022-09-09T05:46:26;13.95;;;8.40;;
68976;SDS011;56029;52.568;13.588;2022-09-09T05:48:52;13.55;;;8.73;;
68976;SDS011;56029;52.568;13.588;2022-09-09T05:51:19;14.57;;;9.50;;
68976;SDS011;56029;52.568;13.588;2022-09-09T05:53:49;14.52;;;8.77;;
68976;SDS011;56029;52.568;13.588;2022-09-09T05:56:17;14.98;;;9.40;;
68976;SDS011;56029;52.568;13.588;2022-09-09T05:58:50;14.93;;;9.00;;
68976;SDS011;56029;52.568;13.588;2022-09-09T06:01:18;14.20;;;8.55;;
68976;SDS011;56029;52.568;13.588;2022-09-09T06:03:46;14.33;;;9.07;;
68976;SDS011;56029;52.568;13.588;2022-09-09T06:06:14;14.45;;;8.70;;
68976;SDS011;56029;52.568;13.588;2022-09-09T06:08:43;13.30;;;8.55;;
68976;SDS011;56029;52.568;13.588;2022-09-09T06:11:11;13.40;;;8.50;;
68976;SDS011;56029;52.568;13.588;2022-09-09T06:13:39;13.45;;;8.40;;
68976;SDS011;56029;52.568;13.588;2022-09-09T06:16:05;13.47;;;8.60;;
68976;SDS011;56029;52.568;13.588;2022-09-09T06:18:42;13.13;;;7.95;;
68976;SDS011;56029;52.568;13.588;2022-09-09T06:21:10;12.45;;;7.75;;
68976;SDS011;56029;52.568;13.588;2022-09-09T06:23:40;12.02;;;7.22;;
68976;SDS011;56029;52.568;13.588;2022-09-09T06:26:07;11.52;;;6.82;;
68976;SDS011;56029;52.568;13.588;2022-09-09T06:28:36;10.43;;;6.43;;
68976;SDS011;56029;52.568;13.588;2022-09-09T06:31:06;12.85;;;6.32;;
68976;SDS011;56029;52.568;13.588;2022-09-09T06:33:34;10.45;;;6.28;;
68976;SDS011;56029;52.568;13.588;2022-09-09T06:36:07;10.95;;;6.45;;
68976;SDS011;56029;52.568;13.588;2022-09-09T06:38:36;10.63;;;6.00;;
68976;SDS011;56029;52.568;13.588;2022-09-09T06:41:01;10.97;;;6.20;;
68976;SDS011;56029;52.568;13.588;2022-09-09T06:43:27;10.40;;;6.23;;
68976;SDS011;56029;52.568;13.588;2022-09-09T06:48:53;9.63;;;5.90;;
68976;SDS011;56029;52.568;13.588;2022-09-09T06:51:23;12.40;;;6.00;;
68976;SDS011;56029;52.568;13.588;2022-09-09T06:53:51;12.15;;;6.25;;
68976;SDS011;56029;52.568;13.588;2022-09-09T06:58:58;10.07;;;5.68;;
68976;SDS011;56029;52.568;13.588;2022-09-09T07:01:27;12.60;;;6.22;;
68976;SDS011;56029;52.568;13.588;2022-09-09T07:03:54;9.95;;;5.55;;
68976;SDS011;56029;52.568;13.588;2022-09-09T07:06:26;10.07;;;5.63;;
68976;SDS011;56029;52.568;13.588;2022-09-09T07:08:54;10.03;;;5.57;;
68976;SDS011;56029;52.568;13.588;2022-09-09T07:11:21;9.48;;;6.00;;
68976;SDS011;56029;52.568;13.588;2022-09-09T07:13:48;10.45;;;5.80;;
68976;SDS011;56029;52.568;13.588;2022-09-09T07:16:16;10.80;;;5.57;;
68976;SDS011;56029;52.568;13.588;2022-09-09T07:18:43;10.82;;;5.22;;
68976;SDS011;56029;52.568;13.588;2022-09-09T07:21:11;9.17;;;4.67;;
68976;SDS011;56029;52.568;13.588;2022-09-09T07:23:37;8.27;;;4.47;;
68976;SDS011;56029;52.568;13.588;2022-09-09T07:26:14;9.68;;;4.50;;
68976;SDS011;56029;52.568;13.588;2022-09-09T07:28:47;8.52;;;4.43;;
68976;SDS011;56029;52.568;13.588;2022-09-09T07:31:18;7.50;;;4.30;;
68976;SDS011;56029;52.568;13.588;2022-09-09T07:33:48;8.63;;;4.10;;
68976;SDS011;56029;52.568;13.588;2022-09-09T07:36:23;8.15;;;4.00;;
68976;SDS011;56029;52.568;13.588;2022-09-09T07:38:55;10.18;;;4.35;;
68976;SDS011;56029;52.568;13.588;2022-09-09T07:41:32;9.38;;;3.80;;
68976;SDS011;56029;52.568;13.588;2022-09-09T07:44:03;9.47;;;4.10;;
68976;SDS011;56029;52.568;13.588;2022-09-09T07:46:30;7.07;;;4.22;;
68976;SDS011;56029;52.568;13.588;2022-09-09T07:48:56;8.35;;;3.78;;
68976;SDS011;56029;52.568;13.588;2022-09-09T07:51:24;7.63;;;3.70;;
68976;SDS011;56029;52.568;13.588;2022-09-09T07:53:55;7.37;;;3.80;;
68976;SDS011;56029;52.568;13.588;2022-09-09T07:56:26;6.72;;;3.60;;
68976;SDS011;56029;52.568;13.588;2022-09-09T07:58:53;5.70;;;3.17;;
68976;SDS011;56029;52.568;13.588;2022-09-09T08:01:22;5.82;;;3.17;;
68976;SDS011;56029;52.568;13.588;2022-09-09T08:03:54;9.43;;;3.83;;
68976;SDS011;56029;52.568;13.588;2022-09-09T08:06:21;6.37;;;3.30;;
68976;SDS011;56029;52.568;13.588;2022-09-09T08:08:49;5.93;;;3.35;;
68976;SDS011;56029;52.568;13.588;2022-09-09T08:11:16;6.40;;;3.20;;
68976;SDS011;56029;52.568;13.588;2022-09-09T08:13:43;6.15;;;3.22;;
68976;SDS011;56029;52.568;13.588;2022-09-09T08:16:13;5.55;;;3.00;;
68976;SDS011;56029;52.568;13.588;2022-09-09T08:18:40;5.63;;;3.27;;
68976;SDS011;56029;52.568;13.588;2022-09-09T08:21:07;7.07;;;3.28;;
68976;SDS011;56029;52.568;13.588;2022-09-09T08:23:34;6.60;;;3.03;;
68976;SDS011;56029;52.568;13.588;2022-09-09T08:26:07;6.05;;;3.17;;
68976;SDS011;56029;52.568;13.588;2022-09-09T08:28:36;7.50;;;2.95;;
68976;SDS011;56029;52.568;13.588;2022-09-09T08:31:15;5.03;;;3.00;;
68976;SDS011;56029;52.568;13.588;2022-09-09T08:33:42;6.75;;;3.10;;
68976;SDS011;56029;52.568;13.588;2022-09-09T08:36:11;5.93;;;3.03;;
68976;SDS011;56029;52.568;13.588;2022-09-09T08:38:40;5.50;;;2.80;;
68976;SDS011;56029;52.568;13.588;2022-09-09T08:41:21;5.28;;;2.72;;
68976;SDS011;56029;52.568;13.588;2022-09-09T08:44:10;5.37;;;2.70;;
68976;SDS011;56029;52.568;13.588;2022-09-09T08:52:30;5.40;;;2.90;;
68976;SDS011;56029;52.568;13.588;2022-09-09T08:58:19;4.90;;;2.60;;
68976;SDS011;56029;52.568;13.588;2022-09-09T09:03:30;5.82;;;2.60;;
68976;SDS011;56029;52.568;13.588;2022-09-09T09:08:32;6.47;;;3.00;;
68976;SDS011;56029;52.568;13.588;2022-09-09T09:11:06;7.47;;;3.47;;
68976;SDS011;56029;52.568;13.588;2022-09-09T09:16:07;6.22;;;3.13;;
68976;SDS011;56029;52.568;13.588;2022-09-09T09:18:43;6.10;;;3.10;;
68976;SDS011;56029;52.568;13.588;2022-09-09T09:21:12;5.47;;;2.63;;
68976;SDS011;56029;52.568;13.588;2022-09-09T09:23:45;5.10;;;2.70;;
68976;SDS011;56029;52.568;13.588;2022-09-09T09:26:19;4.90;;;2.75;;
68976;SDS011;56029;52.568;13.588;2022-09-09T09:28:45;5.88;;;2.53;;
68976;SDS011;56029;52.568;13.588;2022-09-09T09:31:11;5.53;;;2.50;;
68976;SDS011;56029;52.568;13.588;2022-09-09T09:33:43;6.50;;;2.47;;
68976;SDS011;56029;52.568;13.588;2022-09-09T09:36:13;6.50;;;2.42;;
68976;SDS011;56029;52.568;13.588;2022-09-09T09:39:03;4.35;;;2.50;;
68976;SDS011;56029;52.568;13.588;2022-09-09T09:41:30;5.78;;;2.50;;
68976;SDS011;56029;52.568;13.588;2022-09-09T09:44:22;4.67;;;2.20;;
68976;SDS011;56029;52.568;13.588;2022-09-09T09:49:33;3.72;;;2.03;;
68976;SDS011;56029;52.568;13.588;2022-09-09T09:52:02;5.30;;;2.55;;
68976;SDS011;56029;52.568;13.588;2022-09-09T09:54:30;4.93;;;2.33;;
68976;SDS011;56029;52.568;13.588;2022-09-09T09:57:11;5.57;;;2.17;;
68976;SDS011;56029;52.568;13.588;2022-09-09T09:59:38;4.28;;;2.45;;
68976;SDS011;56029;52.568;13.588;2022-09-09T10:02:13;5.90;;;2.22;;
68976;SDS011;56029;52.568;13.588;2022-09-09T10:04:40;3.80;;;2.10;;
68976;SDS011;56029;52.568;13.588;2022-09-09T10:07:10;5.07;;;2.20;;
68976;SDS011;56029;52.568;13.588;2022-09-09T10:09:43;5.13;;;2.20;;
68976;SDS011;56029;52.568;13.588;2022-09-09T10:15:06;3.83;;;2.20;;
68976;SDS011;56029;52.568;13.588;2022-09-09T10:17:54;3.90;;;1.90;;
68976;SDS011;56029;52.568;13.588;2022-09-09T10:26:00;4.67;;;2.30;;
68976;SDS011;56029;52.568;13.588;2022-09-09T10:37:38;6.13;;;2.13;;
68976;SDS011;56029;52.568;13.588;2022-09-09T10:40:19;4.47;;;2.35;;
68976;SDS011;56029;52.568;13.588;2022-09-09T10:42:53;5.47;;;2.30;;
68976;SDS011;56029;52.568;13.588;2022-09-09T10:45:29;5.97;;;2.13;;
68976;SDS011;56029;52.568;13.588;2022-09-09T10:48:12;5.07;;;2.05;;
68976;SDS011;56029;52.568;13.588;2022-09-09T10:53:52;4.32;;;1.90;;
68976;SDS011;56029;52.568;13.588;2022-09-09T10:56:26;3.60;;;1.70;;
68976;SDS011;56029;52.568;13.588;2022-09-09T10:59:28;4.30;;;2.00;;
68976;SDS011;56029;52.568;13.588;2022-09-09T11:01:52;4.03;;;1.98;;
68976;SDS011;56029;52.568;13.588;2022-09-09T11:04:25;4.20;;;2.10;;
68976;SDS011;56029;52.568;13.588;2022-09-09T11:07:00;4.30;;;2.00;;
68976;SDS011;56029;52.568;13.588;2022-09-09T11:09:32;5.95;;;2.00;;
68976;SDS011;56029;52.568;13.588;2022-09-09T11:12:03;4.47;;;2.00;;
68976;SDS011;56029;52.568;13.588;2022-09-09T11:17:10;6.27;;;2.33;;
68976;SDS011;56029;52.568;13.588;2022-09-09T11:19:39;3.72;;;1.90;;
68976;SDS011;56029;52.568;13.588;2022-09-09T11:22:07;5.00;;;2.08;;
68976;SDS011;56029;52.568;13.588;2022-09-09T11:24:50;3.88;;;1.92;;
68976;SDS011;56029;52.568;13.588;2022-09-09T11:27:26;5.45;;;1.90;;
68976;SDS011;56029;52.568;13.588;2022-09-09T11:30:17;5.03;;;2.23;;
68976;SDS011;56029;52.568;13.588;2022-09-09T11:35:40;6.32;;;2.15;;
68976;SDS011;56029;52.568;13.588;2022-09-09T11:38:32;4.72;;;2.08;;
68976;SDS011;56029;52.568;13.588;2022-09-09T11:41:10;4.57;;;1.88;;
68976;SDS011;56029;52.568;13.588;2022-09-09T11:43:45;5.03;;;2.23;;
68976;SDS011;56029;52.568;13.588;2022-09-09T11:46:14;4.05;;;2.00;;
68976;SDS011;56029;52.568;13.588;2022-09-09T11:48:43;4.88;;;1.80;;
68976;SDS011;56029;52.568;13.588;2022-09-09T11:53:53;3.53;;;1.87;;
68976;SDS011;56029;52.568;13.588;2022-09-09T11:58:56;3.47;;;1.50;;
68976;SDS011;56029;52.568;13.588;2022-09-09T12:01:29;4.20;;;1.80;;
68976;SDS011;56029;52.568;13.588;2022-09-09T12:06:44;3.25;;;1.70;;
68976;SDS011;56029;52.568;13.588;2022-09-09T12:14:38;3.30;;;1.60;;
68976;SDS011;56029;52.568;13.588;2022-09-09T12:17:16;2.60;;;1.80;;
68976;SDS011;56029;52.568;13.588;2022-09-09T12:19:44;3.85;;;1.80;;
68976;SDS011;56029;52.568;13.588;2022-09-09T12:22:33;3.65;;;1.65;;
68976;SDS011;56029;52.568;13.588;2022-09-09T12:25:31;4.20;;;1.80;;
68976;SDS011;56029;52.568;13.588;2022-09-09T12:28:18;5.73;;;1.70;;
68976;SDS011;56029;52.568;13.588;2022-09-09T12:33:36;3.53;;;1.80;;
68976;SDS011;56029;52.568;13.588;2022-09-09T12:36:05;2.53;;;1.63;;
68976;SDS011;56029;52.568;13.588;2022-09-09T12:38:38;2.80;;;1.40;;
68976;SDS011;56029;52.568;13.588;2022-09-09T12:41:05;3.97;;;1.50;;
68976;SDS011;56029;52.568;13.588;2022-09-09T12:43:31;3.03;;;1.50;;
68976;SDS011;56029;52.568;13.588;2022-09-09T12:46:03;3.03;;;1.50;;
68976;SDS011;56029;52.568;13.588;2022-09-09T12:48:35;4.17;;;1.50;;
68976;SDS011;56029;52.568;13.588;2022-09-09T12:51:06;2.95;;;1.40;;
68976;SDS011;56029;52.568;13.588;2022-09-09T12:53:42;3.83;;;1.67;;
68976;SDS011;56029;52.568;13.588;2022-09-09T12:56:08;2.83;;;1.50;;
68976;SDS011;56029;52.568;13.588;2022-09-09T12:58:45;2.83;;;1.40;;
68976;SDS011;56029;52.568;13.588;2022-09-09T13:01:32;4.45;;;1.60;;
68976;SDS011;56029;52.568;13.588;2022-09-09T13:03:58;3.78;;;1.70;;
68976;SDS011;56029;52.568;13.588;2022-09-09T13:06:31;3.30;;;1.50;;
68976;SDS011;56029;52.568;13.588;2022-09-09T13:08:58;3.22;;;1.50;;
68976;SDS011;56029;52.568;13.588;2022-09-09T13:11:27;5.13;;;1.50;;
68976;SDS011;56029;52.568;13.588;2022-09-09T13:13:56;2.85;;;1.40;;
68976;SDS011;56029;52.568;13.588;2022-09-09T13:16:27;4.70;;;1.40;;
68976;SDS011;56029;52.568;13.588;2022-09-09T13:18:57;2.95;;;1.27;;
68976;SDS011;56029;52.568;13.588;2022-09-09T13:21:37;4.45;;;1.40;;
68976;SDS011;56029;52.568;13.588;2022-09-09T13:24:05;2.10;;;1.40;;
68976;SDS011;56029;52.568;13.588;2022-09-09T13:26:53;2.78;;;1.42;;
68976;SDS011;56029;52.568;13.588;2022-09-09T13:29:21;3.40;;;1.60;;
68976;SDS011;56029;52.568;13.588;2022-09-09T13:31:47;2.90;;;1.38;;
68976;SDS011;56029;52.568;13.588;2022-09-09T13:34:14;3.05;;;1.40;;
68976;SDS011;56029;52.568;13.588;2022-09-09T13:37:01;2.63;;;1.40;;
68976;SDS011;56029;52.568;13.588;2022-09-09T13:39:31;3.25;;;1.50;;
68976;SDS011;56029;52.568;13.588;2022-09-09T13:41:59;2.53;;;1.40;;
68976;SDS011;56029;52.568;13.588;2022-09-09T13:44:25;2.87;;;1.40;;
68976;SDS011;56029;52.568;13.588;2022-09-09T13:47:04;3.80;;;1.30;;
68976;SDS011;56029;52.568;13.588;2022-09-09T13:49:31;2.33;;;1.50;;
68976;SDS011;56029;52.568;13.588;2022-09-09T13:54:39;3.08;;;1.30;;
68976;SDS011;56029;52.568;13.588;2022-09-09T13:57:05;2.53;;;1.37;;
68976;SDS011;56029;52.568;13.588;2022-09-09T13:59:38;3.63;;;1.55;;
68976;SDS011;56029;52.568;13.588;2022-09-09T14:02:04;1.63;;;1.27;;
68976;SDS011;56029;52.568;13.588;2022-09-09T14:04:30;3.00;;;1.53;;
68976;SDS011;56029;52.568;13.588;2022-09-09T14:06:56;3.28;;;1.60;;
68976;SDS011;56029;52.568;13.588;2022-09-09T14:09:21;3.13;;;1.30;;
68976;SDS011;56029;52.568;13.588;2022-09-09T14:11:47;3.55;;;1.40;;
68976;SDS011;56029;52.568;13.588;2022-09-09T14:14:12;3.47;;;1.30;;
68976;SDS011;56029;52.568;13.588;2022-09-09T14:16:38;3.45;;;1.27;;
68976;SDS011;56029;52.568;13.588;2022-09-09T14:19:04;3.63;;;1.30;;
68976;SDS011;56029;52.568;13.588;2022-09-09T14:21:29;3.97;;;1.50;;
68976;SDS011;56029;52.568;13.588;2022-09-09T14:23:55;3.85;;;1.40;;
68976;SDS011;56029;52.568;13.588;2022-09-09T14:26:23;3.80;;;1.50;;
68976;SDS011;56029;52.568;13.588;2022-09-09T14:28:49;3.88;;;1.40;;
68976;SDS011;56029;52.568;13.588;2022-09-09T14:31:15;3.45;;;1.50;;
68976;SDS011;56029;52.568;13.588;2022-09-09T14:33:42;2.77;;;1.53;;
68976;SDS011;56029;52.568;13.588;2022-09-09T14:36:12;3.83;;;1.60;;
68976;SDS011;56029;52.568;13.588;2022-09-09T14:38:38;2.67;;;1.50;;
68976;SDS011;56029;52.568;13.588;2022-09-09T14:41:11;3.53;;;1.38;;
68976;SDS011;56029;52.568;13.588;2022-09-09T14:43:38;2.53;;;1.33;;
68976;SDS011;56029;52.568;13.588;2022-09-09T14:46:08;4.20;;;1.50;;
68976;SDS011;56029;52.568;13.588;2022-09-09T14:48:39;3.30;;;1.40;;
68976;SDS011;56029;52.568;13.588;2022-09-09T14:51:16;2.90;;;1.38;;
68976;SDS011;56029;52.568;13.588;2022-09-09T14:53:44;3.38;;;1.40;;
68976;SDS011;56029;52.568;13.588;2022-09-09T14:56:15;2.47;;;1.40;;
68976;SDS011;56029;52.568;13.588;2022-09-09T14:58:42;3.73;;;1.30;;
68976;SDS011;56029;52.568;13.588;2022-09-09T15:01:09;4.47;;;1.55;;
68976;SDS011;56029;52.568;13.588;2022-09-09T15:03:38;4.88;;;1.65;;
68976;SDS011;56029;52.568;13.588;2022-09-09T15:06:08;4.43;;;1.50;;
68976;SDS011;56029;52.568;13.588;2022-09-09T15:08:36;4.07;;;1.90;;
68976;SDS011;56029;52.568;13.588;2022-09-09T15:11:03;3.43;;;1.60;;
68976;SDS011;56029;52.568;13.588;2022-09-09T15:13:32;5.22;;;1.60;;
68976;SDS011;56029;52.568;13.588;2022-09-09T15:16:03;2.70;;;1.50;;
68976;SDS011;56029;52.568;13.588;2022-09-09T15:18:29;2.88;;;1.48;;
68976;SDS011;56029;52.568;13.588;2022-09-09T15:20:55;3.70;;;1.40;;
68976;SDS011;56029;52.568;13.588;2022-09-09T15:23:21;3.90;;;1.30;;
68976;SDS011;56029;52.568;13.588;2022-09-09T15:25:53;3.80;;;1.83;;
68976;SDS011;56029;52.568;13.588;2022-09-09T15:28:20;5.10;;;2.20;;
68976;SDS011;56029;52.568;13.588;2022-09-09T15:30:49;5.28;;;2.53;;
68976;SDS011;56029;52.568;13.588;2022-09-09T15:33:17;4.72;;;1.65;;
68976;SDS011;56029;52.568;13.588;2022-09-09T15:35:43;4.40;;;1.75;;
68976;SDS011;56029;52.568;13.588;2022-09-09T15:38:10;3.57;;;1.80;;
68976;SDS011;56029;52.568;13.588;2022-09-09T15:40:39;4.22;;;1.80;;
68976;SDS011;56029;52.568;13.588;2022-09-09T15:43:05;5.22;;;1.90;;
68976;SDS011;56029;52.568;13.588;2022-09-09T15:45:32;4.32;;;1.80;;
68976;SDS011;56029;52.568;13.588;2022-09-09T15:47:59;4.78;;;1.60;;
68976;SDS011;56029;52.568;13.588;2022-09-09T15:50:25;2.50;;;1.30;;
68976;SDS011;56029;52.568;13.588;2022-09-09T15:52:51;4.13;;;1.50;;
68976;SDS011;56029;52.568;13.588;2022-09-09T15:55:18;2.83;;;1.27;;
68976;SDS011;56029;52.568;13.588;2022-09-09T15:57:50;5.05;;;1.80;;
68976;SDS011;56029;52.568;13.588;2022-09-09T16:00:18;3.57;;;1.50;;
68976;SDS011;56029;52.568;13.588;2022-09-09T16:02:46;3.45;;;1.65;;
68976;SDS011;56029;52.568;13.588;2022-09-09T16:05:12;3.30;;;1.55;;
68976;SDS011;56029;52.568;13.588;2022-09-09T16:07:37;3.63;;;1.70;;
68976;SDS011;56029;52.568;13.588;2022-09-09T16:10:03;3.45;;;1.55;;
68976;SDS011;56029;52.568;13.588;2022-09-09T16:12:29;3.30;;;1.60;;
68976;SDS011;56029;52.568;13.588;2022-09-09T16:14:54;3.37;;;1.40;;
68976;SDS011;56029;52.568;13.588;2022-09-09T16:17:20;2.80;;;1.40;;
68976;SDS011;56029;52.568;13.588;2022-09-09T16:19:46;3.63;;;1.58;;
68976;SDS011;56029;52.568;13.588;2022-09-09T16:22:11;4.53;;;1.40;;
68976;SDS011;56029;52.568;13.588;2022-09-09T16:24:37;3.28;;;1.50;;
68976;SDS011;56029;52.568;13.588;2022-09-09T16:27:03;4.90;;;1.40;;
68976;SDS011;56029;52.568;13.588;2022-09-09T16:29:29;3.60;;;1.50;;
68976;SDS011;56029;52.568;13.588;2022-09-09T16:31:55;5.07;;;1.52;;
68976;SDS011;56029;52.568;13.588;2022-09-09T16:34:20;5.40;;;1.70;;
68976;SDS011;56029;52.568;13.588;2022-09-09T16:36:47;3.55;;;1.70;;
68976;SDS011;56029;52.568;13.588;2022-09-09T16:39:14;4.70;;;2.00;;